Time;durP1;ratioP1;P1;durP2;ratioP2;P2;SDS_P1;SDS_P2;PMS_P1;PMS_P2;Temp;Humidity;BMP_temperature;BMP_pressure;BME280_temperature;BME280_humidity;BME280_pressure;Samples;Min_cycle;Max_cycle;Signal;HPM_P1;HPM_P2
2023/01/25 00:00:04;;;;;;;30.80;24.43;;;1.00;99.90;;;;;;2615880;54;20375;-75
2023/01/25 00:06:00;;;;;;;26.70;22.40;;;1.00;99.90;;;;;;2615825;54;20422;-75
2023/01/25 00:11:48;;;;;;;24.30;20.33;;;1.00;99.90;;;;;;2617220;46;20453;-76
2023/01/25 00:17:36;;;;;;;25.33;20.90;;;0.90;99.90;;;;;;2616941;54;20367;-75
2023/01/25 00:23:23;;;;;;;27.93;21.07;;;0.90;99.90;;;;;;2615258;54;20138;-76
2023/01/25 00:29:13;;;;;;;30.33;23.60;;;1.00;99.90;;;;;;2615156;54;20154;-76
2023/01/25 00:35:00;;;;;;;25.07;22.03;;;0.90;99.90;;;;;;2614527;54;20479;-77
2023/01/25 00:40:48;;;;;;;26.70;22.77;;;1.00;99.90;;;;;;2617128;39;20521;-77
2023/01/25 00:50:35;;;;;;;32.13;24.93;;;0.90;99.90;;;;;;2616355;54;20527;-76
2023/01/25 00:56:23;;;;;;;27.90;21.47;;;1.00;99.90;;;;;;2614838;54;21346;-79
2023/01/25 01:02:11;;;;;;;27.97;22.33;;;1.00;99.90;;;;;;2613752;54;20134;-77
2023/01/25 01:07:59;;;;;;;28.10;22.10;;;0.90;99.90;;;;;;2616720;39;20932;-78
2023/01/25 01:13:46;;;;;;;26.23;18.97;;;0.90;99.90;;;;;;2614467;54;20169;-77
2023/01/25 01:19:34;;;;;;;28.20;20.50;;;0.70;99.90;;;;;;2613596;54;20131;-77
2023/01/25 01:25:22;;;;;;;31.67;23.77;;;0.80;99.90;;;;;;2616088;54;20158;-78
2023/01/25 01:31:19;;;;;;;28.60;20.13;;;0.70;99.90;;;;;;2616018;54;20127;-77
2023/01/25 01:37:06;;;;;;;28.37;21.17;;;0.60;99.90;;;;;;2613437;54;20378;-76
2023/01/25 01:49:29;;;;;;;25.30;20.30;;;0.50;99.90;;;;;;2614160;54;20382;-75
2023/01/25 01:55:22;;;;;;;25.30;19.63;;;0.50;99.90;;;;;;2615772;39;20776;-78
2023/01/25 02:01:11;;;;;;;28.37;20.20;;;0.50;99.90;;;;;;2615160;54;20370;-77
2023/01/25 02:07:05;;;;;;;27.83;20.20;;;0.50;99.90;;;;;;2616063;54;20379;-78
2023/01/25 02:12:55;;;;;;;29.63;21.20;;;0.50;99.90;;;;;;2614959;54;20956;-77
2023/01/25 02:18:43;;;;;;;29.50;20.93;;;0.50;99.90;;;;;;2612611;54;20366;-76
2023/01/25 02:24:32;;;;;;;25.13;19.23;;;0.40;99.90;;;;;;2615933;54;20580;-77
2023/01/25 02:30:20;;;;;;;24.87;19.33;;;0.30;99.90;;;;;;2613187;54;20479;-77
2023/01/25 02:36:07;;;;;;;25.67;19.87;;;0.40;99.90;;;;;;2615403;54;20983;-77
2023/01/25 02:41:55;;;;;;;26.60;19.50;;;0.40;99.90;;;;;;2616104;54;20134;-77
2023/01/25 02:47:43;;;;;;;30.33;20.93;;;0.20;99.90;;;;;;2613131;54;20134;-76
2023/01/25 02:50:37;;;;;;;28.73;21.47;;;0.20;99.90;;;;;;2612383;47;20522;-80
2023/01/25 02:53:02;;;;;;;30.23;22.00;;;0.30;99.90;;;;;;2615206;47;20157;-77
2023/01/25 02:58:51;;;;;;;27.53;19.90;;;0.30;99.90;;;;;;2615518;54;20170;-77
2023/01/25 03:01:54;;;;;;;23.93;18.73;;;0.30;99.90;;;;;;2612803;54;20426;-77
2023/01/25 03:04:19;;;;;;;31.17;21.10;;;0.30;99.90;;;;;;2614562;54;20415;-77
2023/01/25 03:10:08;;;;;;;32.30;21.83;;;0.20;99.90;;;;;;2614321;54;20130;-77
2023/01/25 03:16:05;;;;;;;23.73;20.53;;;0.30;99.90;;;;;;2615870;54;20418;-76
2023/01/25 03:21:53;;;;;;;30.10;23.30;;;0.30;99.90;;;;;;2615536;54;20391;-76
2023/01/25 03:27:41;;;;;;;27.10;20.70;;;0.20;99.90;;;;;;2615805;54;20118;-76
2023/01/25 03:33:29;;;;;;;27.00;20.27;;;0.20;99.90;;;;;;2616067;54;20129;-77
2023/01/25 03:39:16;;;;;;;28.23;21.50;;;0.20;99.90;;;;;;2613874;54;20382;-76
2023/01/25 03:45:05;;;;;;;25.80;18.80;;;0.10;99.90;;;;;;2613655;54;20193;-77
2023/01/25 03:55:11;;;;;;;33.27;21.50;;;0.00;99.90;;;;;;2616542;39;20485;-77
2023/01/25 04:01:00;;;;;;;29.87;21.80;;;0.00;99.90;;;;;;2614083;54;20362;-77
2023/01/25 04:06:48;;;;;;;28.47;18.77;;;0.00;99.90;;;;;;2615676;54;20409;-76
2023/01/25 04:12:36;;;;;;;31.57;21.40;;;0.00;99.90;;;;;;2613478;39;22140;-76
2023/01/25 04:18:24;;;;;;;28.83;21.63;;;0.00;99.90;;;;;;2613203;54;20391;-76
2023/01/25 04:24:11;;;;;;;33.23;22.57;;;0.10;99.90;;;;;;2615613;54;20174;-76
2023/01/25 04:29:59;;;;;;;31.20;22.87;;;0.20;99.90;;;;;;2614056;54;20130;-77
2023/01/25 04:32:25;;;;;;;30.17;21.23;;;0.20;99.90;;;;;;2612800;47;20419;-77
2023/01/25 04:34:51;;;;;;;34.00;23.17;;;0.20;99.90;;;;;;2613763;54;20278;-76
2023/01/25 04:40:39;;;;;;;38.40;23.57;;;0.20;99.90;;;;;;2614485;54;20154;-76
2023/01/25 04:46:26;;;;;;;37.00;22.70;;;0.10;99.90;;;;;;2614407;54;20492;-76
2023/01/25 04:55:46;;;;;;;31.40;20.87;;;0.10;99.90;;;;;;2616483;54;20446;-76
2023/01/25 05:01:33;;;;;;;27.40;17.77;;;0.10;99.90;;;;;;2616346;54;21128;-76
2023/01/25 05:07:21;;;;;;;26.60;16.67;;;0.00;99.90;;;;;;2616443;54;20127;-75
2023/01/25 05:13:09;;;;;;;32.63;19.93;;;-0.10;99.90;;;;;;2616529;54;20150;-77
2023/01/25 05:18:57;;;;;;;29.37;18.37;;;-0.10;99.90;;;;;;2615699;39;20597;-77
2023/01/25 05:24:44;;;;;;;33.03;20.60;;;0.00;99.90;;;;;;2616077;54;20130;-76
2023/01/25 05:30:33;;;;;;;32.63;19.90;;;-0.10;99.90;;;;;;2616510;54;20142;-76
2023/01/25 05:36:20;;;;;;;40.80;23.57;;;-0.10;99.90;;;;;;2616494;54;20370;-76
2023/01/25 05:42:13;;;;;;;38.60;21.60;;;0.00;99.90;;;;;;2613366;54;20118;-77
2023/01/25 05:48:01;;;;;;;32.00;20.93;;;-0.10;99.90;;;;;;2614265;54;20391;-77
2023/01/25 05:51:10;;;;;;;44.23;26.80;;;0.00;99.90;;;;;;2614301;46;20502;-77
2023/01/25 05:53:36;;;;;;;35.20;21.27;;;0.00;99.90;;;;;;2616488;54;20415;-75
2023/01/25 05:59:24;;;;;;;38.80;22.83;;;0.00;99.90;;;;;;2615997;54;20158;-77
2023/01/25 06:05:12;;;;;;;40.83;19.97;;;0.10;99.90;;;;;;2614713;54;20203;-77
2023/01/25 06:17:31;;;;;;;35.93;22.30;;;0.10;99.90;;;;;;2613211;39;20858;-77
2023/01/25 06:23:18;;;;;;;38.67;24.57;;;0.10;99.90;;;;;;2612797;54;20152;-76
2023/01/25 06:29:06;;;;;;;40.83;23.03;;;0.10;99.90;;;;;;2612417;39;20682;-77
2023/01/25 06:34:53;;;;;;;43.57;26.30;;;0.10;99.90;;;;;;2614282;54;20444;-79
2023/01/25 06:40:40;;;;;;;38.03;25.30;;;0.10;99.90;;;;;;2614571;54;21099;-76
2023/01/25 06:46:31;;;;;;;39.53;24.87;;;0.20;99.90;;;;;;2611860;54;20154;-77
2023/01/25 06:55:41;;;;;;;41.20;27.23;;;0.10;99.90;;;;;;2613111;54;20415;-77
2023/01/25 07:01:29;;;;;;;37.10;23.80;;;0.10;99.90;;;;;;2615491;54;20262;-77
2023/01/25 07:07:16;;;;;;;37.23;26.43;;;0.10;99.90;;;;;;2613054;54;20157;-77
2023/01/25 07:13:04;;;;;;;38.90;25.43;;;0.00;99.90;;;;;;2614336;54;20138;-76
2023/01/25 07:18:52;;;;;;;37.93;25.80;;;0.00;99.90;;;;;;2615817;54;20687;-77
2023/01/25 07:24:40;;;;;;;43.90;26.53;;;0.00;99.90;;;;;;2615449;54;20560;-77
2023/01/25 07:30:28;;;;;;;47.07;27.13;;;0.00;99.90;;;;;;2616114;54;20367;-77
2023/01/25 07:36:16;;;;;;;48.90;29.03;;;0.10;99.90;;;;;;2614713;54;20123;-78
2023/01/25 07:42:03;;;;;;;42.27;26.57;;;0.00;99.90;;;;;;2612671;54;20366;-77
2023/01/25 07:47:51;;;;;;;35.70;22.10;;;0.10;99.90;;;;;;2612419;46;20430;-78
2023/01/25 07:53:40;;;;;;;46.87;26.20;;;0.00;99.90;;;;;;2612620;54;20157;-77
2023/01/25 07:59:30;;;;;;;44.03;25.83;;;0.00;99.90;;;;;;2613030;54;20426;-77
2023/01/25 08:05:18;;;;;;;40.60;27.70;;;0.10;99.90;;;;;;2614654;54;20402;-77
2023/01/25 08:11:13;;;;;;;41.03;26.70;;;0.10;99.90;;;;;;2612672;54;20483;-77
2023/01/25 08:17:03;;;;;;;42.93;26.93;;;0.00;99.90;;;;;;2614115;54;20463;-76
2023/01/25 08:22:51;;;;;;;45.37;25.70;;;0.10;99.90;;;;;;2614689;54;20418;-78
2023/01/25 08:28:39;;;;;;;44.00;28.37;;;0.00;99.90;;;;;;2615426;54;20382;-77
2023/01/25 08:31:12;;;;;;;43.50;28.87;;;0.00;99.90;;;;;;2613035;54;20427;-76
2023/01/25 08:33:38;;;;;;;39.77;28.00;;;-0.10;99.90;;;;;;2612650;54;20161;-77
2023/01/25 08:39:26;;;;;;;47.93;29.00;;;0.10;99.90;;;;;;2614213;54;20395;-76
2023/01/25 08:45:14;;;;;;;54.63;28.83;;;0.20;99.90;;;;;;2614089;54;20131;-76
2023/01/25 08:51:02;;;;;;;46.20;28.27;;;0.10;99.90;;;;;;2616296;54;20158;-76
2023/01/25 08:53:53;;;;;;;54.30;31.17;;;0.10;99.90;;;;;;2615073;54;20450;-77
2023/01/25 08:56:20;;;;;;;45.83;29.00;;;0.20;99.90;;;;;;2613606;46;21500;-77
2023/01/25 09:02:10;;;;;;;44.27;29.30;;;0.20;99.90;;;;;;2616061;54;20426;-76
2023/01/25 09:07:58;;;;;;;47.03;30.20;;;0.20;99.90;;;;;;2616646;46;20413;-77
2023/01/25 09:13:47;;;;;;;47.57;29.93;;;0.30;99.90;;;;;;2616113;54;20122;-76
2023/01/25 09:19:35;;;;;;;43.00;27.43;;;0.30;99.90;;;;;;2612722;54;20422;-76
2023/01/25 09:25:22;;;;;;;43.37;27.47;;;0.30;99.90;;;;;;2613518;54;20134;-76
2023/01/25 09:31:10;;;;;;;39.70;27.50;;;0.20;99.90;;;;;;2613719;54;20640;-76
2023/01/25 09:36:58;;;;;;;50.43;29.50;;;0.10;99.90;;;;;;2615556;54;20247;-76
2023/01/25 09:59:25;;;;;;;34.63;21.17;;;0.30;99.90;;;;;;2613412;54;20403;-76
2023/01/25 10:05:18;;;;;;;38.67;25.03;;;0.30;99.90;;;;;;2614112;54;20412;-76
2023/01/25 10:14:46;;;;;;;41.00;25.00;;;0.30;99.90;;;;;;2611981;54;20429;-76
2023/01/25 10:20:33;;;;;;;29.83;19.47;;;0.30;99.90;;;;;;2614839;39;20863;-76
2023/01/25 10:26:28;;;;;;;44.40;25.77;;;0.40;99.90;;;;;;2611990;54;20149;-76
2023/01/25 10:38:43;;;;;;;42.90;23.97;;;0.50;99.90;;;;;;2615495;54;20379;-76
2023/01/25 10:44:35;;;;;;;44.90;26.60;;;0.50;99.90;;;;;;2613324;54;20402;-77
2023/01/25 10:54:05;;;;;;;44.23;27.80;;;0.50;99.90;;;;;;2612401;54;21171;-76
2023/01/25 10:56:37;;;;;;;46.87;29.47;;;0.40;99.90;;;;;;2611542;54;20411;-77
2023/01/25 11:02:44;;;;;;;44.77;27.63;;;0.50;99.90;;;;;;2614378;54;20394;-76
2023/01/25 11:08:38;;;;;;;43.00;27.23;;;0.40;99.90;;;;;;2614340;54;20435;-77
2023/01/25 11:14:28;;;;;;;44.77;26.83;;;0.40;99.90;;;;;;2612449;54;20530;-77
2023/01/25 11:20:19;;;;;;;41.57;27.43;;;0.50;99.90;;;;;;2614066;54;20944;-77
2023/01/25 11:36:52;;;;;;;43.33;27.93;;;0.70;99.90;;;;;;2616168;54;20507;-76
2023/01/25 11:42:47;;;;;;;45.47;27.37;;;0.70;99.90;;;;;;2613271;54;20422;-79
2023/01/25 12:05:16;;;;;;;41.97;25.60;;;0.60;99.90;;;;;;2613008;54;20434;-77
2023/01/25 12:11:19;;;;;;;50.13;29.57;;;0.80;99.90;;;;;;2613422;54;20162;-77
2023/01/25 12:36:49;;;;;;;39.97;26.90;;;0.60;99.90;;;;;;2615944;54;20406;-75
2023/01/25 12:42:45;;;;;;;41.60;29.37;;;0.60;99.90;;;;;;2613645;39;20940;-76
2023/01/25 12:48:40;;;;;;;50.33;31.17;;;0.50;99.90;;;;;;2614367;54;20381;-77
2023/01/25 12:58:39;;;;;;;43.83;25.50;;;0.70;99.90;;;;;;2614396;39;20702;-75
2023/01/25 13:10:52;;;;;;;46.70;27.73;;;0.60;99.90;;;;;;2614110;54;20399;-76
2023/01/25 13:16:42;;;;;;;48.30;29.23;;;0.50;99.90;;;;;;2617536;39;20757;-74
2023/01/25 13:22:42;;;;;;;49.80;29.50;;;0.40;99.90;;;;;;2616982;54;20383;-77
2023/01/25 13:28:45;;;;;;;57.97;31.47;;;0.50;99.90;;;;;;2615624;39;20787;-76
2023/01/25 13:34:38;;;;;;;48.50;31.30;;;0.50;99.90;;;;;;2615358;54;20410;-76
2023/01/25 13:40:37;;;;;;;46.13;27.60;;;0.40;99.90;;;;;;2614566;54;20984;-76
2023/01/25 13:46:25;;;;;;;53.50;28.67;;;0.60;99.90;;;;;;2615289;54;20913;-76
2023/01/25 13:52:19;;;;;;;46.67;30.00;;;0.70;99.90;;;;;;2616824;54;20230;-76
2023/01/25 13:58:17;;;;;;;60.50;32.50;;;0.50;99.90;;;;;;2615719;54;20450;-76
2023/01/25 14:00:58;;;;;;;53.57;30.63;;;0.60;99.90;;;;;;2614875;46;20464;-76
2023/01/25 14:09:46;;;;;;;51.50;31.90;;;0.60;99.90;;;;;;2613373;54;20430;-76
2023/01/25 14:25:42;;;;;;;51.23;28.77;;;0.60;99.90;;;;;;2614142;54;21052;-76
2023/01/25 14:31:35;;;;;;;55.43;29.00;;;0.60;99.90;;;;;;2613055;54;20135;-77
2023/01/25 14:37:23;;;;;;;49.80;28.50;;;0.60;99.90;;;;;;2616599;54;20370;-76
2023/01/25 14:43:11;;;;;;;52.50;30.67;;;0.60;99.90;;;;;;2614418;54;20157;-77
2023/01/25 14:52:55;;;;;;;53.70;27.27;;;0.40;99.90;;;;;;2616183;54;20419;-77
2023/01/25 14:58:43;;;;;;;56.27;29.00;;;0.50;99.90;;;;;;2614193;39;20765;-76
2023/01/25 15:04:31;;;;;;;56.03;30.37;;;0.50;99.90;;;;;;2615052;54;20258;-77
2023/01/25 15:10:26;;;;;;;56.30;31.53;;;0.50;99.90;;;;;;2614039;54;20152;-78
2023/01/25 15:16:15;;;;;;;53.90;28.23;;;0.30;99.90;;;;;;2616296;39;20879;-78
2023/01/25 15:22:07;;;;;;;54.17;31.97;;;0.40;99.90;;;;;;2615915;54;20447;-78
2023/01/25 15:27:54;;;;;;;53.30;30.20;;;0.40;99.90;;;;;;2613802;54;20402;-76
2023/01/25 15:33:43;;;;;;;61.43;32.57;;;0.50;99.90;;;;;;2613632;54;20145;-76
2023/01/25 15:39:31;;;;;;;48.90;29.13;;;0.40;99.90;;;;;;2614449;54;22091;-77
2023/01/25 15:45:19;;;;;;;55.10;29.40;;;0.50;99.90;;;;;;2613714;39;20653;-76
2023/01/25 15:51:07;;;;;;;52.80;29.50;;;0.40;99.90;;;;;;2615947;46;20165;-76
2023/01/25 15:54:07;;;;;;;51.30;26.37;;;0.40;99.90;;;;;;2614391;54;20399;-76
2023/01/25 15:56:36;;;;;;;61.10;31.67;;;0.40;99.90;;;;;;2613787;39;20814;-76
2023/01/25 16:02:25;;;;;;;59.60;31.33;;;0.40;99.90;;;;;;2614215;54;20399;-77
2023/01/25 16:08:17;;;;;;;57.97;31.53;;;0.30;99.90;;;;;;2615654;54;20384;-77
2023/01/25 16:14:05;;;;;;;53.10;29.23;;;0.20;99.90;;;;;;2613074;54;20382;-77
2023/01/25 16:19:53;;;;;;;56.03;31.17;;;0.30;99.90;;;;;;2614588;54;20145;-76
2023/01/25 16:25:43;;;;;;;51.03;30.07;;;0.30;99.90;;;;;;2613433;54;20134;-77
2023/01/25 16:31:30;;;;;;;54.73;30.97;;;0.30;99.90;;;;;;2615692;54;20382;-76
2023/01/25 16:37:18;;;;;;;58.57;32.17;;;0.40;99.90;;;;;;2615730;54;20154;-77
2023/01/25 16:43:06;;;;;;;58.63;30.10;;;0.30;99.90;;;;;;2612463;54;20978;-77
2023/01/25 16:48:56;;;;;;;68.87;36.93;;;0.30;99.90;;;;;;2615814;31;20676;-77
2023/01/25 16:58:40;;;;;;;55.10;29.20;;;0.30;99.90;;;;;;2614084;54;20410;-77
2023/01/25 17:04:29;;;;;;;66.13;30.10;;;0.20;99.90;;;;;;2613609;54;20996;-77
2023/01/25 17:10:16;;;;;;;61.23;29.33;;;0.10;99.90;;;;;;2616341;46;20450;-76
2023/01/25 17:16:04;;;;;;;81.43;35.97;;;0.10;99.90;;;;;;2616939;54;20134;-76
2023/01/25 17:21:52;;;;;;;68.17;34.30;;;0.10;99.90;;;;;;2616522;54;20366;-77
2023/01/25 17:27:40;;;;;;;75.57;40.20;;;0.10;99.90;;;;;;2616440;54;20169;-76
2023/01/25 17:33:28;;;;;;;95.97;47.10;;;0.10;99.90;;;;;;2614178;54;20378;-77
2023/01/25 17:39:18;;;;;;;102.07;45.37;;;0.00;99.90;;;;;;2615594;54;20426;-77
2023/01/25 17:45:06;;;;;;;90.63;45.27;;;0.00;99.90;;;;;;2615518;54;20936;-77
2023/01/25 17:51:01;;;;;;;87.97;42.30;;;0.00;99.90;;;;;;2617101;39;20790;-77
2023/01/25 17:54:05;;;;;;;89.27;46.00;;;0.00;99.90;;;;;;2615541;46;20398;-77
2023/01/25 17:56:31;;;;;;;89.60;43.30;;;0.00;99.90;;;;;;2616262;54;20442;-77
2023/01/25 18:02:19;;;;;;;83.97;44.00;;;-0.10;99.90;;;;;;2616692;39;20822;-77
2023/01/25 18:08:07;;;;;;;82.83;39.93;;;0.00;99.90;;;;;;2616296;54;20379;-78
2023/01/25 18:13:57;;;;;;;79.47;42.87;;;0.10;99.90;;;;;;2616304;54;20134;-77
2023/01/25 18:19:45;;;;;;;81.63;45.57;;;0.00;99.90;;;;;;2615983;54;20486;-78
2023/01/25 18:25:35;;;;;;;92.73;43.77;;;0.00;99.90;;;;;;2615551;54;20138;-77
2023/01/25 18:31:23;;;;;;;79.17;37.57;;;0.00;99.90;;;;;;2616682;54;20447;-77
2023/01/25 18:37:16;;;;;;;75.70;40.00;;;-0.10;99.90;;;;;;2616992;39;20564;-77
2023/01/25 18:43:04;;;;;;;80.10;37.93;;;0.00;99.90;;;;;;2616453;54;20437;-78
2023/01/25 18:48:52;;;;;;;76.60;38.13;;;-0.10;99.90;;;;;;2616637;54;20130;-76
2023/01/25 18:58:39;;;;;;;72.87;40.30;;;-0.20;99.90;;;;;;2616818;54;20949;-78
2023/01/25 19:04:27;;;;;;;63.70;34.63;;;-0.20;99.90;;;;;;2616185;54;20391;-76
2023/01/25 19:10:16;;;;;;;63.57;33.27;;;-0.10;99.90;;;;;;2616509;54;20422;-77
2023/01/25 19:16:08;;;;;;;80.40;41.23;;;-0.20;99.90;;;;;;2615973;54;20370;-77
2023/01/25 19:21:56;;;;;;;81.30;38.17;;;-0.20;99.90;;;;;;2616387;54;20391;-77
2023/01/25 19:27:44;;;;;;;58.40;29.80;;;-0.20;99.90;;;;;;2616099;54;20399;-78
2023/01/25 19:33:32;;;;;;;62.33;32.00;;;-0.30;99.90;;;;;;2615666;54;20142;-77
2023/01/25 19:39:20;;;;;;;81.50;42.40;;;-0.20;99.90;;;;;;2616045;54;20402;-77
2023/01/25 19:45:08;;;;;;;60.80;31.30;;;-0.20;99.90;;;;;;2615262;54;20146;-77
2023/01/25 20:00:52;;;;;;;74.60;36.30;;;-0.20;99.90;;;;;;2615803;54;21047;-78
2023/01/25 20:06:40;;;;;;;69.80;38.57;;;-0.20;99.90;;;;;;2615316;54;20130;-78
2023/01/25 20:12:28;;;;;;;58.33;30.70;;;-0.20;99.90;;;;;;2615824;54;20450;-77
2023/01/25 20:18:16;;;;;;;69.87;35.17;;;-0.10;99.90;;;;;;2616168;54;20130;-78
2023/01/25 20:24:06;;;;;;;70.47;36.90;;;-0.20;99.90;;;;;;2616744;54;20363;-77
2023/01/25 20:29:54;;;;;;;58.47;28.77;;;-0.30;99.90;;;;;;2616814;54;20390;-78
2023/01/25 20:35:42;;;;;;;72.60;33.00;;;-0.30;99.90;;;;;;2616820;54;20198;-78
2023/01/25 20:41:29;;;;;;;83.17;34.03;;;-0.40;99.90;;;;;;2616934;54;20151;-78
2023/01/25 20:47:17;;;;;;;59.83;30.50;;;-0.40;99.90;;;;;;2616209;54;20742;-77
2023/01/25 20:53:05;;;;;;;63.10;34.77;;;-0.40;99.90;;;;;;2617050;39;20552;-78
2023/01/25 20:58:53;;;;;;;59.67;27.40;;;-0.50;99.90;;;;;;2616360;54;20229;-78
2023/01/25 21:08:20;;;;;;;70.70;32.57;;;-0.40;99.90;;;;;;2615280;54;20430;-77
2023/01/25 21:14:07;;;;;;;66.53;34.50;;;-0.30;99.90;;;;;;2613159;54;20391;-77
2023/01/25 21:19:56;;;;;;;73.73;35.37;;;-0.40;99.90;;;;;;2614309;54;20777;-77
2023/01/25 21:25:43;;;;;;;73.73;32.67;;;-0.50;99.90;;;;;;2614056;39;20814;-78
2023/01/25 21:31:33;;;;;;;66.87;34.20;;;-0.60;99.90;;;;;;2614458;54;20133;-77
2023/01/25 21:37:21;;;;;;;75.90;38.77;;;-0.50;99.90;;;;;;2614988;54;20404;-78
2023/01/25 21:43:09;;;;;;;84.07;40.90;;;-0.50;99.90;;;;;;2616573;54;20495;-78
2023/01/25 21:55:05;;;;;;;86.90;43.13;;;-0.60;99.90;;;;;;2615241;54;20996;-78
2023/01/25 21:57:45;;;;;;;80.47;40.57;;;-0.60;99.90;;;;;;2615706;54;20435;-76
2023/01/25 22:00:13;;;;;;;91.97;44.47;;;-0.60;99.90;;;;;;2613568;47;20414;-76
2023/01/25 22:06:00;;;;;;;80.87;41.03;;;-0.60;99.90;;;;;;2615691;54;20518;-79
2023/01/25 22:11:49;;;;;;;70.60;39.40;;;-0.80;99.90;;;;;;2616214;54;20740;-78
2023/01/25 22:17:37;;;;;;;80.90;40.67;;;-0.70;99.90;;;;;;2615366;54;20504;-77
2023/01/25 22:23:26;;;;;;;89.27;44.47;;;-0.70;99.90;;;;;;2615942;54;20122;-77
2023/01/25 22:29:14;;;;;;;89.37;42.23;;;-0.60;99.90;;;;;;2614419;54;20442;-78
2023/01/25 22:35:02;;;;;;;86.33;42.50;;;-0.60;99.90;;;;;;2616393;54;20948;-78
2023/01/25 22:40:51;;;;;;;89.30;40.30;;;-0.70;99.90;;;;;;2616698;54;20130;-77
2023/01/25 22:46:38;;;;;;;91.60;38.27;;;-0.70;99.90;;;;;;2616755;39;20735;-77
2023/01/25 22:52:26;;;;;;;78.93;39.80;;;-0.80;99.90;;;;;;2616181;54;20150;-79
2023/01/25 23:02:15;;;;;;;93.67;38.40;;;-0.80;99.90;;;;;;2615864;54;20538;-77
2023/01/25 23:08:03;;;;;;;99.00;44.43;;;-0.90;99.90;;;;;;2616251;54;20383;-77
2023/01/25 23:20:00;;;;;;;94.90;42.93;;;-0.90;99.90;;;;;;2616037;54;20436;-78
2023/01/25 23:25:47;;;;;;;99.53;44.13;;;-0.90;99.90;;;;;;2616153;54;20374;-78
2023/01/25 23:31:35;;;;;;;110.77;47.33;;;-0.90;99.90;;;;;;2616131;54;20150;-77
2023/01/25 23:37:23;;;;;;;104.07;47.27;;;-0.90;99.90;;;;;;2615659;46;20382;-76
2023/01/25 23:43:10;;;;;;;105.33;46.37;;;-1.00;99.90;;;;;;2615914;54;20239;-77
2023/01/25 23:48:58;;;;;;;113.47;49.17;;;-1.00;99.90;;;;;;2616728;54;21035;-78
2023/01/25 23:54:46;;;;;;;92.00;38.47;;;-0.90;99.90;;;;;;2615404;54;20250;-77
